• Join FlightAware (Why Join?)
  • Login
  • US Flag 
 
09:23PM EST


 

Airport Tracker/Info


-or-


 

Live Flight TrackerFlight Track Log ✈ AWI3778 ✈ 28-Apr-2013 ✈ KBTV - KPHL

Flight Track Log - Related Links

Times and Time Zones

All times are in EDT time to prevent confusion due to time zone crossing. See the AWI3778 flight status page for this flight to view local times or setup timezone preferences in your user account.

Time Position Orientation Groundspeed Altitude Reporting Facility
EDT Latitude Longitude Course Direction KTS MPH feet Rate Location/Type
01:31PM 44.1682 -73.2594 196° South  Level FlightAware Approximate
01:32PM 44.0690 -73.2990 196° South  Level FlightAware Approximate
01:32PM 44.3214 -73.1683 195° South 217 250 7,400  Level Boston Center
01:33PM 43.9699 -73.3388 196° South  Level FlightAware Approximate
01:33PM 44.2631 -73.1908 195° South 222 255 10,000  Level Boston Center
01:34PM 43.8705 -73.3776 195° South  Level FlightAware Approximate
01:34PM 44.2067 -73.2133 196° South 227 261 12,200  Level Boston Center
01:35PM 43.7708 -73.4144 195° South  Level FlightAware Approximate
01:35PM 44.1439 -73.2386 196° South 232 267 14,400  Level Boston Center
01:36PM 43.6711 -73.4511 195° South  Level FlightAware Approximate
01:36PM 44.0769 -73.2694 198° South 248 285 16,200  Level Boston Center
01:37PM 44.0103 -73.2944 195° South 248 285 18,000 1,620 Climbing Boston Center
01:38PM 43.9369 -73.3253 197° South 267 307 19,500 1,680 Climbing Boston Center
01:39PM 43.8597 -73.3586 197° South 280 322 21,400 1,800 Climbing Boston Center
01:40PM 43.7822 -73.3889 196° South 289 333 23,100 1,440 Climbing Boston Center
01:41PM 43.6964 -73.4394 203° Southwest 301 346 24,300 1,140 Climbing Boston Center
01:42PM 43.6228 -73.5100 215° Southwest 313 360 25,400 840 Climbing Boston Center
01:43PM 43.5639 -73.5719 217° Southwest 324 373 26,000 300 Climbing Boston Center
01:44PM 43.4669 -73.6703 216° Southwest 347 399 26,000  Level Boston Center
01:45PM 43.3828 -73.7542 216° Southwest 373 429 26,000  Level Boston Center
01:46PM 43.2900 -73.8492 217° Southwest 414 476 26,000  Level Boston Center
01:47PM 43.1928 -73.9494 217° Southwest 432 497 26,000  Level Boston Center
01:48PM 43.0997 -74.0439 217° Southwest 432 497 26,000  Level Boston Center
01:49PM 43.0067 -74.1381 217° Southwest 432 497 26,000  Level Boston Center
01:50PM 42.9136 -74.2317 216° Southwest 432 497 26,000  Level Boston Center
01:51PM 42.8139 -74.3308 216° Southwest 420 483 26,000  Level Boston Center
01:52PM 42.7250 -74.4186 216° Southwest 415 478 26,000  Level Boston Center
01:53PM 42.6442 -74.5033 218° Southwest 396 456 26,000  Level Boston Center
01:54PM 42.5572 -74.5850 215° Southwest 389 448 26,000 -300 Level Boston Center
01:55PM 42.4703 -74.6694 216° Southwest 389 448 25,400 -1,020 Descending Boston Center
01:57PM 42.2717 -74.8539 215° Southwest 373 429 22,500 -1,200 Descending New York Center
01:58PM 42.1897 -74.9300 215° Southwest 368 423 21,300 -1,320 Descending New York Center
01:59PM 42.0975 -75.0136 214° Southwest 363 418 19,900 -1,200 Descending New York Center
02:00PM 42.0197 -75.0867 215° Southwest 363 418 19,000 -480 Descending New York Center
02:01PM 41.9467 -75.1517 214° Southwest 357 411 19,000  Level New York Center
02:02PM 41.8631 -75.2158 210° Southwest 357 411 19,000 -660 Level New York Center
02:03PM 41.7769 -75.2881 212° Southwest 352 405 17,800 -1,380 Descending New York Center
02:04PM 41.6956 -75.3517 210° Southwest 346 398 16,300 -1,440 Descending New York Center
02:05PM 41.6203 -75.4133 211° Southwest 336 387 14,900 -1,260 Descending New York Center
02:06PM 41.5536 -75.4669 211° Southwest 325 374 13,900 -660 Descending New York Center
02:07PM 41.4697 -75.5358 212° Southwest 330 380 13,600 -840 Descending New York Center
02:08PM 41.3986 -75.5914 210° Southwest 319 367 12,200 -900 Descending New York Center
02:09PM 41.3342 -75.6422 211° Southwest 314 361 11,900 -540 Descending New York Center
02:10PM 41.2497 -75.6664 192° South 279 321 11,200 -840 Descending New York Center
02:11PM 41.1778 -75.6419 166° South 285 328 10,300 -660 Descending New York Center
02:12PM 41.1036 -75.6228 169° South 290 334 9,900 -240 Descending New York Center
02:13PM 41.0214 -75.5978 167° South 285 328 9,900  Level New York Center
02:14PM 40.9472 -75.5786 169° South 277 319 10,000  Climbing New York Center
02:15PM 40.8711 -75.5542 166° South 277 319 10,000  Level New York Center
02:16PM 40.7969 -75.5325 168° South 277 319 10,000  Level New York Center
02:17PM 40.7186 -75.5078 167° South 277 319 10,000  Level New York Center
02:18PM 40.6444 -75.4889 169° South 277 319 10,000  Level New York Center
02:19PM 40.5764 -75.4681 167° South 277 319 10,000 -480 Level New York Center
02:20PM 40.5022 -75.4492 169° South 277 319 9,100 -540 Descending New York Center
02:21PM 40.4314 -75.4472 179° South 272 313 9,000 -660 Descending New York Center
02:22PM 40.3658 -75.4753 198° South 242 278 7,800 -1,020 Descending New York Center
02:23PM 40.3083 -75.5014 199° South 227 261 7,000 -420 Descending New York Center
02:24PM 40.2533 -75.5247 198° South 222 255 7,000  Level New York Center
02:25PM 40.1961 -75.5453 195° South 230 265 7,000  Level New York Center
02:27PM 40.0989 -75.4736 151° Southeast 210 242 7,000 -300 Level New York Center
02:28PM 40.0817 -75.3856 104° East 216 249 6,200 -540 Descending New York Center
02:29PM 40.0717 -75.3172 101° East 216 249 6,000 -180 Descending New York Center
02:29PM 40.0667 -75.2833 101° East 213 245 6,000  Level Philadelphia TRACON
02:31PM 40.0500 -75.2000 105° East 203 234 6,000  Level Philadelphia TRACON
02:31PM 40.0000 -75.1833 166° South 196 226 6,000  Level Philadelphia TRACON
02:32PM 39.9833 -75.1333 113° Southeast 220 253 6,000  Level Philadelphia TRACON
02:33PM 40.0000 -75.0500 75° East 208 239 6,000  Level Philadelphia TRACON
02:34PM 40.0167 -74.9833 72° East 215 247 6,000 -300 Level Philadelphia TRACON
02:35PM 40.0333 -74.9000 75° East 210 242 5,500 -840 Descending Philadelphia TRACON
02:36PM 39.9833 -74.9000 180° South 209 241 4,400 -780 Descending Philadelphia TRACON
02:37PM 39.9500 -74.9333 217° Southwest 193 222 4,000 -420 Descending Philadelphia TRACON
02:38PM 39.9167 -75.0000 237° Southwest 197 227 3,600 -420 Descending Philadelphia TRACON